sensor_id;sensor_type;location;lat;lon;timestamp;temperature;humidity
19781;DHT22;10050;55.492;13.506;2023-04-15T00:00:25;8.20;99.90
19781;DHT22;10050;55.492;13.506;2023-04-15T00:02:51;8.20;99.90
19781;DHT22;10050;55.492;13.506;2023-04-15T00:05:17;8.20;99.90
19781;DHT22;10050;55.492;13.506;2023-04-15T00:07:43;8.10;99.90
19781;DHT22;10050;55.492;13.506;2023-04-15T00:10:10;8.20;99.90
19781;DHT22;10050;55.492;13.506;2023-04-15T00:12:35;8.10;99.90
19781;DHT22;10050;55.492;13.506;2023-04-15T00:15:01;8.20;99.90
19781;DHT22;10050;55.492;13.506;2023-04-15T00:17:27;8.20;99.90
19781;DHT22;10050;55.492;13.506;2023-04-15T00:19:52;8.20;99.90
19781;DHT22;10050;55.492;13.506;2023-04-15T00:22:19;8.20;99.90
19781;DHT22;10050;55.492;13.506;2023-04-15T00:24:44;8.10;99.90
19781;DHT22;10050;55.492;13.506;2023-04-15T00:27:10;8.10;99.90
19781;DHT22;10050;55.492;13.506;2023-04-15T00:29:36;8.20;99.90
19781;DHT22;10050;55.492;13.506;2023-04-15T00:32:01;8.20;99.90
19781;DHT22;10050;55.492;13.506;2023-04-15T00:34:27;8.20;99.90
19781;DHT22;10050;55.492;13.506;2023-04-15T00:36:53;8.10;99.90
19781;DHT22;10050;55.492;13.506;2023-04-15T00:39:19;8.10;99.90
19781;DHT22;10050;55.492;13.506;2023-04-15T00:41:45;8.10;99.90
19781;DHT22;10050;55.492;13.506;2023-04-15T00:44:11;8.20;99.90
19781;DHT22;10050;55.492;13.506;2023-04-15T00:46:37;8.20;99.90
19781;DHT22;10050;55.492;13.506;2023-04-15T00:49:05;8.10;99.90
19781;DHT22;10050;55.492;13.506;2023-04-15T00:51:34;8.10;99.90
19781;DHT22;10050;55.492;13.506;2023-04-15T00:54:03;8.10;99.90
19781;DHT22;10050;55.492;13.506;2023-04-15T00:56:29;8.10;99.90
19781;DHT22;10050;55.492;13.506;2023-04-15T00:58:56;8.00;99.90
19781;DHT22;10050;55.492;13.506;2023-04-15T01:01:23;8.00;99.90
19781;DHT22;10050;55.492;13.506;2023-04-15T01:03:50;8.00;99.90
19781;DHT22;10050;55.492;13.506;2023-04-15T01:06:17;8.00;99.90
19781;DHT22;10050;55.492;13.506;2023-04-15T01:08:43;8.00;99.90
19781;DHT22;10050;55.492;13.506;2023-04-15T01:11:10;8.00;99.90
19781;DHT22;10050;55.492;13.506;2023-04-15T01:13:36;8.00;99.90
19781;DHT22;10050;55.492;13.506;2023-04-15T01:16:02;8.10;99.90
19781;DHT22;10050;55.492;13.506;2023-04-15T01:18:29;8.00;99.90
19781;DHT22;10050;55.492;13.506;2023-04-15T01:20:55;8.00;99.90
19781;DHT22;10050;55.492;13.506;2023-04-15T01:23:20;8.10;99.90
19781;DHT22;10050;55.492;13.506;2023-04-15T01:25:48;8.10;99.90
19781;DHT22;10050;55.492;13.506;2023-04-15T01:28:14;8.10;99.90
19781;DHT22;10050;55.492;13.506;2023-04-15T01:30:40;8.00;99.90
19781;DHT22;10050;55.492;13.506;2023-04-15T01:33:06;8.00;99.90
19781;DHT22;10050;55.492;13.506;2023-04-15T01:35:32;8.00;99.90
19781;DHT22;10050;55.492;13.506;2023-04-15T01:38:16;8.00;99.90
19781;DHT22;10050;55.492;13.506;2023-04-15T01:40:42;8.00;99.90
19781;DHT22;10050;55.492;13.506;2023-04-15T01:43:08;7.90;99.90
19781;DHT22;10050;55.492;13.506;2023-04-15T01:45:33;7.90;99.90
19781;DHT22;10050;55.492;13.506;2023-04-15T01:47:59;7.90;99.90
19781;DHT22;10050;55.492;13.506;2023-04-15T01:50:25;7.90;99.90
19781;DHT22;10050;55.492;13.506;2023-04-15T01:52:51;7.90;99.90
19781;DHT22;10050;55.492;13.506;2023-04-15T01:55:17;8.00;99.90
19781;DHT22;10050;55.492;13.506;2023-04-15T01:57:42;7.90;99.90
19781;DHT22;10050;55.492;13.506;2023-04-15T02:00:08;8.00;99.90
19781;DHT22;10050;55.492;13.506;2023-04-15T02:02:34;8.00;99.90
19781;DHT22;10050;55.492;13.506;2023-04-15T02:05:00;8.00;99.90
19781;DHT22;10050;55.492;13.506;2023-04-15T02:07:26;8.00;99.90
19781;DHT22;10050;55.492;13.506;2023-04-15T02:09:53;8.00;99.90
19781;DHT22;10050;55.492;13.506;2023-04-15T02:12:18;8.00;99.90
19781;DHT22;10050;55.492;13.506;2023-04-15T02:14:44;8.10;99.90
19781;DHT22;10050;55.492;13.506;2023-04-15T02:17:10;8.10;99.90
19781;DHT22;10050;55.492;13.506;2023-04-15T02:19:36;8.10;99.90
19781;DHT22;10050;55.492;13.506;2023-04-15T02:22:02;8.10;99.90
19781;DHT22;10050;55.492;13.506;2023-04-15T02:24:29;8.10;99.90
19781;DHT22;10050;55.492;13.506;2023-04-15T02:26:55;8.10;99.90
19781;DHT22;10050;55.492;13.506;2023-04-15T02:29:21;8.10;99.90
19781;DHT22;10050;55.492;13.506;2023-04-15T02:31:47;8.10;99.90
19781;DHT22;10050;55.492;13.506;2023-04-15T02:34:13;8.10;99.90
19781;DHT22;10050;55.492;13.506;2023-04-15T02:36:39;8.10;99.90
19781;DHT22;10050;55.492;13.506;2023-04-15T02:39:05;8.10;99.90
19781;DHT22;10050;55.492;13.506;2023-04-15T02:41:31;8.10;99.90
19781;DHT22;10050;55.492;13.506;2023-04-15T02:43:57;8.20;99.90
19781;DHT22;10050;55.492;13.506;2023-04-15T02:46:22;8.20;99.90
19781;DHT22;10050;55.492;13.506;2023-04-15T02:48:48;8.20;99.90
19781;DHT22;10050;55.492;13.506;2023-04-15T02:51:16;8.20;99.90
19781;DHT22;10050;55.492;13.506;2023-04-15T02:53:44;8.20;99.90
19781;DHT22;10050;55.492;13.506;2023-04-15T02:56:10;8.20;99.90
19781;DHT22;10050;55.492;13.506;2023-04-15T02:58:36;8.30;99.90
19781;DHT22;10050;55.492;13.506;2023-04-15T03:01:02;8.20;99.90
19781;DHT22;10050;55.492;13.506;2023-04-15T03:03:27;8.30;99.90
19781;DHT22;10050;55.492;13.506;2023-04-15T03:05:53;8.30;99.90
19781;DHT22;10050;55.492;13.506;2023-04-15T03:08:19;8.30;99.90
19781;DHT22;10050;55.492;13.506;2023-04-15T03:10:45;8.30;99.90
19781;DHT22;10050;55.492;13.506;2023-04-15T03:13:12;8.30;99.90
19781;DHT22;10050;55.492;13.506;2023-04-15T03:15:37;8.30;99.90
19781;DHT22;10050;55.492;13.506;2023-04-15T03:18:03;8.20;99.90
19781;DHT22;10050;55.492;13.506;2023-04-15T03:20:28;8.20;99.90
19781;DHT22;10050;55.492;13.506;2023-04-15T03:22:54;8.20;99.90
19781;DHT22;10050;55.492;13.506;2023-04-15T03:25:20;8.20;99.90
19781;DHT22;10050;55.492;13.506;2023-04-15T03:27:46;8.20;99.90
19781;DHT22;10050;55.492;13.506;2023-04-15T03:30:12;8.20;99.90
19781;DHT22;10050;55.492;13.506;2023-04-15T03:32:38;8.20;99.90
19781;DHT22;10050;55.492;13.506;2023-04-15T03:35:04;8.20;99.90
19781;DHT22;10050;55.492;13.506;2023-04-15T03:37:30;8.20;99.90
19781;DHT22;10050;55.492;13.506;2023-04-15T03:39:55;8.20;99.90
19781;DHT22;10050;55.492;13.506;2023-04-15T03:42:21;8.20;99.90
19781;DHT22;10050;55.492;13.506;2023-04-15T03:44:47;8.20;99.90
19781;DHT22;10050;55.492;13.506;2023-04-15T03:47:12;8.20;99.90
19781;DHT22;10050;55.492;13.506;2023-04-15T03:49:38;8.20;99.90
19781;DHT22;10050;55.492;13.506;2023-04-15T03:52:04;8.20;99.90
19781;DHT22;10050;55.492;13.506;2023-04-15T03:54:30;8.20;99.90
19781;DHT22;10050;55.492;13.506;2023-04-15T03:56:56;8.20;99.90
19781;DHT22;10050;55.492;13.506;2023-04-15T03:59:22;8.20;99.90
19781;DHT22;10050;55.492;13.506;2023-04-15T04:01:48;8.30;99.90
19781;DHT22;10050;55.492;13.506;2023-04-15T04:04:13;8.30;99.90
19781;DHT22;10050;55.492;13.506;2023-04-15T04:06:39;8.30;99.90
19781;DHT22;10050;55.492;13.506;2023-04-15T04:09:05;8.30;99.90
19781;DHT22;10050;55.492;13.506;2023-04-15T04:11:30;8.30;99.90
19781;DHT22;10050;55.492;13.506;2023-04-15T04:13:57;8.30;99.90
19781;DHT22;10050;55.492;13.506;2023-04-15T04:16:23;8.30;99.90
19781;DHT22;10050;55.492;13.506;2023-04-15T04:18:48;8.40;99.90
19781;DHT22;10050;55.492;13.506;2023-04-15T04:21:14;8.40;99.90
19781;DHT22;10050;55.492;13.506;2023-04-15T04:23:40;8.30;99.90
19781;DHT22;10050;55.492;13.506;2023-04-15T04:26:06;8.40;99.90
19781;DHT22;10050;55.492;13.506;2023-04-15T04:28:31;8.40;99.90
19781;DHT22;10050;55.492;13.506;2023-04-15T04:30:57;8.40;99.90
19781;DHT22;10050;55.492;13.506;2023-04-15T04:33:23;8.40;99.90
19781;DHT22;10050;55.492;13.506;2023-04-15T04:35:49;8.40;99.90
19781;DHT22;10050;55.492;13.506;2023-04-15T04:38:15;8.40;99.90
19781;DHT22;10050;55.492;13.506;2023-04-15T04:40:40;8.40;99.90
19781;DHT22;10050;55.492;13.506;2023-04-15T04:43:06;8.50;99.90
19781;DHT22;10050;55.492;13.506;2023-04-15T04:45:31;8.50;99.90
19781;DHT22;10050;55.492;13.506;2023-04-15T04:47:57;8.50;99.90
19781;DHT22;10050;55.492;13.506;2023-04-15T04:50:23;8.50;99.90
19781;DHT22;10050;55.492;13.506;2023-04-15T04:52:48;8.50;99.90
19781;DHT22;10050;55.492;13.506;2023-04-15T04:55:14;8.60;99.90
19781;DHT22;10050;55.492;13.506;2023-04-15T04:57:40;8.60;99.90
19781;DHT22;10050;55.492;13.506;2023-04-15T05:00:08;8.70;99.90
19781;DHT22;10050;55.492;13.506;2023-04-15T05:02:34;8.60;99.90
19781;DHT22;10050;55.492;13.506;2023-04-15T05:04:59;8.60;99.90
19781;DHT22;10050;55.492;13.506;2023-04-15T05:07:25;8.60;99.90
19781;DHT22;10050;55.492;13.506;2023-04-15T05:09:51;8.60;99.90
19781;DHT22;10050;55.492;13.506;2023-04-15T05:12:17;8.60;99.90
19781;DHT22;10050;55.492;13.506;2023-04-15T05:14:43;8.60;99.90
19781;DHT22;10050;55.492;13.506;2023-04-15T05:17:09;8.50;99.90
19781;DHT22;10050;55.492;13.506;2023-04-15T05:19:35;8.50;99.90
19781;DHT22;10050;55.492;13.506;2023-04-15T05:22:01;8.50;99.90
19781;DHT22;10050;55.492;13.506;2023-04-15T05:24:27;8.50;99.90
19781;DHT22;10050;55.492;13.506;2023-04-15T05:26:53;8.40;99.90
19781;DHT22;10050;55.492;13.506;2023-04-15T05:29:19;8.50;99.90
19781;DHT22;10050;55.492;13.506;2023-04-15T05:31:51;8.50;99.90
19781;DHT22;10050;55.492;13.506;2023-04-15T05:34:17;8.60;99.90
19781;DHT22;10050;55.492;13.506;2023-04-15T05:36:42;8.60;99.90
19781;DHT22;10050;55.492;13.506;2023-04-15T05:39:08;8.60;99.90
19781;DHT22;10050;55.492;13.506;2023-04-15T05:41:34;8.70;99.90
19781;DHT22;10050;55.492;13.506;2023-04-15T05:43:59;8.80;99.90
19781;DHT22;10050;55.492;13.506;2023-04-15T05:46:25;8.90;99.90
19781;DHT22;10050;55.492;13.506;2023-04-15T05:48:51;9.00;99.90
19781;DHT22;10050;55.492;13.506;2023-04-15T05:51:17;9.00;99.90
19781;DHT22;10050;55.492;13.506;2023-04-15T05:53:43;8.80;99.90
19781;DHT22;10050;55.492;13.506;2023-04-15T05:56:10;8.80;99.90
19781;DHT22;10050;55.492;13.506;2023-04-15T05:58:35;8.70;99.90
19781;DHT22;10050;55.492;13.506;2023-04-15T06:01:02;8.70;99.90
19781;DHT22;10050;55.492;13.506;2023-04-15T06:03:27;8.60;99.90
19781;DHT22;10050;55.492;13.506;2023-04-15T06:05:53;8.50;99.90
19781;DHT22;10050;55.492;13.506;2023-04-15T06:08:19;8.50;99.90
19781;DHT22;10050;55.492;13.506;2023-04-15T06:10:46;8.50;99.90
19781;DHT22;10050;55.492;13.506;2023-04-15T06:13:11;8.50;99.90
19781;DHT22;10050;55.492;13.506;2023-04-15T06:15:37;8.70;99.90
19781;DHT22;10050;55.492;13.506;2023-04-15T06:18:03;8.90;99.90
19781;DHT22;10050;55.492;13.506;2023-04-15T06:20:29;8.90;99.90
19781;DHT22;10050;55.492;13.506;2023-04-15T06:22:55;9.00;99.90
19781;DHT22;10050;55.492;13.506;2023-04-15T06:25:21;9.00;99.90
19781;DHT22;10050;55.492;13.506;2023-04-15T06:27:47;9.00;99.90
19781;DHT22;10050;55.492;13.506;2023-04-15T06:30:13;9.10;99.90
19781;DHT22;10050;55.492;13.506;2023-04-15T06:32:38;9.20;99.90
19781;DHT22;10050;55.492;13.506;2023-04-15T06:35:04;9.30;99.90
19781;DHT22;10050;55.492;13.506;2023-04-15T06:37:30;9.30;99.90
19781;DHT22;10050;55.492;13.506;2023-04-15T06:39:57;9.50;99.90
19781;DHT22;10050;55.492;13.506;2023-04-15T06:42:22;9.50;99.90
19781;DHT22;10050;55.492;13.506;2023-04-15T06:44:48;9.60;99.90
19781;DHT22;10050;55.492;13.506;2023-04-15T06:47:14;9.60;99.90
19781;DHT22;10050;55.492;13.506;2023-04-15T06:49:40;9.70;99.90
19781;DHT22;10050;55.492;13.506;2023-04-15T06:52:05;9.90;99.90
19781;DHT22;10050;55.492;13.506;2023-04-15T06:54:31;9.80;99.90
19781;DHT22;10050;55.492;13.506;2023-04-15T06:56:57;9.80;99.90
19781;DHT22;10050;55.492;13.506;2023-04-15T06:59:23;10.00;99.90
19781;DHT22;10050;55.492;13.506;2023-04-15T07:01:48;10.20;99.90
19781;DHT22;10050;55.492;13.506;2023-04-15T07:04:14;10.40;99.90
19781;DHT22;10050;55.492;13.506;2023-04-15T07:06:43;10.60;99.90
19781;DHT22;10050;55.492;13.506;2023-04-15T07:09:09;10.70;99.90
19781;DHT22;10050;55.492;13.506;2023-04-15T07:11:35;11.00;99.90
19781;DHT22;10050;55.492;13.506;2023-04-15T07:14:01;11.30;99.90
19781;DHT22;10050;55.492;13.506;2023-04-15T07:16:26;11.70;99.90
19781;DHT22;10050;55.492;13.506;2023-04-15T07:18:52;11.90;99.90
19781;DHT22;10050;55.492;13.506;2023-04-15T07:21:18;12.20;99.90
19781;DHT22;10050;55.492;13.506;2023-04-15T07:23:44;12.70;99.90
19781;DHT22;10050;55.492;13.506;2023-04-15T07:26:09;13.20;99.90
19781;DHT22;10050;55.492;13.506;2023-04-15T07:28:35;13.30;99.90
19781;DHT22;10050;55.492;13.506;2023-04-15T07:31:01;13.80;99.90
19781;DHT22;10050;55.492;13.506;2023-04-15T07:33:27;14.10;99.90
19781;DHT22;10050;55.492;13.506;2023-04-15T07:35:52;14.40;99.90
19781;DHT22;10050;55.492;13.506;2023-04-15T07:38:18;14.80;99.90
19781;DHT22;10050;55.492;13.506;2023-04-15T07:40:45;15.00;99.90
19781;DHT22;10050;55.492;13.506;2023-04-15T07:43:10;15.50;99.90
19781;DHT22;10050;55.492;13.506;2023-04-15T07:45:37;15.80;99.90
19781;DHT22;10050;55.492;13.506;2023-04-15T07:48:03;16.10;99.90
19781;DHT22;10050;55.492;13.506;2023-04-15T07:50:30;16.10;99.90
19781;DHT22;10050;55.492;13.506;2023-04-15T07:52:55;15.70;99.90
19781;DHT22;10050;55.492;13.506;2023-04-15T07:55:22;16.00;99.90
19781;DHT22;10050;55.492;13.506;2023-04-15T07:57:48;16.30;99.90
19781;DHT22;10050;55.492;13.506;2023-04-15T08:00:14;16.20;99.90
19781;DHT22;10050;55.492;13.506;2023-04-15T08:02:41;16.20;99.90
19781;DHT22;10050;55.492;13.506;2023-04-15T08:05:11;15.40;99.90
19781;DHT22;10050;55.492;13.506;2023-04-15T08:07:38;14.60;99.90
19781;DHT22;10050;55.492;13.506;2023-04-15T08:10:04;14.20;99.90
19781;DHT22;10050;55.492;13.506;2023-04-15T08:12:30;13.90;99.90
19781;DHT22;10050;55.492;13.506;2023-04-15T08:14:56;13.70;99.90
19781;DHT22;10050;55.492;13.506;2023-04-15T08:17:22;13.60;99.90
19781;DHT22;10050;55.492;13.506;2023-04-15T08:19:48;13.30;99.90
19781;DHT22;10050;55.492;13.506;2023-04-15T08:22:14;13.20;99.90
19781;DHT22;10050;55.492;13.506;2023-04-15T08:24:40;12.80;99.90
19781;DHT22;10050;55.492;13.506;2023-04-15T08:27:05;12.70;99.90
19781;DHT22;10050;55.492;13.506;2023-04-15T08:29:32;12.50;99.90
19781;DHT22;10050;55.492;13.506;2023-04-15T08:31:59;12.40;99.90
19781;DHT22;10050;55.492;13.506;2023-04-15T08:34:26;12.40;99.90
19781;DHT22;10050;55.492;13.506;2023-04-15T08:36:52;12.40;99.90
19781;DHT22;10050;55.492;13.506;2023-04-15T08:39:17;12.50;99.90
19781;DHT22;10050;55.492;13.506;2023-04-15T08:41:50;12.70;99.90
19781;DHT22;10050;55.492;13.506;2023-04-15T08:44:17;12.50;99.90
19781;DHT22;10050;55.492;13.506;2023-04-15T08:46:43;12.30;99.90
19781;DHT22;10050;55.492;13.506;2023-04-15T08:49:12;12.50;99.90
19781;DHT22;10050;55.492;13.506;2023-04-15T08:51:40;12.30;99.90
19781;DHT22;10050;55.492;13.506;2023-04-15T08:54:08;12.40;99.90
19781;DHT22;10050;55.492;13.506;2023-04-15T08:56:34;12.90;99.90
19781;DHT22;10050;55.492;13.506;2023-04-15T08:59:01;13.30;99.90
19781;DHT22;10050;55.492;13.506;2023-04-15T09:01:27;13.40;99.90
19781;DHT22;10050;55.492;13.506;2023-04-15T09:03:55;13.20;99.90
19781;DHT22;10050;55.492;13.506;2023-04-15T09:06:21;13.10;99.90
19781;DHT22;10050;55.492;13.506;2023-04-15T09:08:48;13.40;99.90
19781;DHT22;10050;55.492;13.506;2023-04-15T09:11:13;13.60;99.90
19781;DHT22;10050;55.492;13.506;2023-04-15T09:13:39;14.00;99.90
19781;DHT22;10050;55.492;13.506;2023-04-15T09:16:06;14.20;99.90
19781;DHT22;10050;55.492;13.506;2023-04-15T09:18:33;14.00;99.90
19781;DHT22;10050;55.492;13.506;2023-04-15T09:21:07;14.00;99.90
19781;DHT22;10050;55.492;13.506;2023-04-15T09:23:36;14.20;99.90
19781;DHT22;10050;55.492;13.506;2023-04-15T09:26:02;14.40;99.90
19781;DHT22;10050;55.492;13.506;2023-04-15T09:28:28;14.40;99.90
19781;DHT22;10050;55.492;13.506;2023-04-15T09:30:55;14.40;99.90
19781;DHT22;10050;55.492;13.506;2023-04-15T09:33:22;14.90;99.90
19781;DHT22;10050;55.492;13.506;2023-04-15T09:35:58;15.20;99.90
19781;DHT22;10050;55.492;13.506;2023-04-15T09:38:24;15.10;99.90
19781;DHT22;10050;55.492;13.506;2023-04-15T09:40:50;15.00;99.90
19781;DHT22;10050;55.492;13.506;2023-04-15T09:43:16;15.30;99.90
19781;DHT22;10050;55.492;13.506;2023-04-15T09:45:50;15.60;99.90
19781;DHT22;10050;55.492;13.506;2023-04-15T09:48:24;15.80;99.90
19781;DHT22;10050;55.492;13.506;2023-04-15T09:50:51;15.70;99.90
19781;DHT22;10050;55.492;13.506;2023-04-15T09:53:23;15.70;99.90
19781;DHT22;10050;55.492;13.506;2023-04-15T09:55:53;15.90;99.90
19781;DHT22;10050;55.492;13.506;2023-04-15T09:58:20;15.90;99.90
19781;DHT22;10050;55.492;13.506;2023-04-15T10:00:47;15.60;99.90
19781;DHT22;10050;55.492;13.506;2023-04-15T10:03:20;15.50;99.90
19781;DHT22;10050;55.492;13.506;2023-04-15T10:05:47;15.10;99.90
19781;DHT22;10050;55.492;13.506;2023-04-15T10:08:16;14.90;99.90
19781;DHT22;10050;55.492;13.506;2023-04-15T10:10:43;15.20;99.90
19781;DHT22;10050;55.492;13.506;2023-04-15T10:13:09;15.40;99.90
19781;DHT22;10050;55.492;13.506;2023-04-15T10:15:36;15.50;99.90
19781;DHT22;10050;55.492;13.506;2023-04-15T10:18:04;15.10;99.90
19781;DHT22;10050;55.492;13.506;2023-04-15T10:20:32;15.10;99.90
19781;DHT22;10050;55.492;13.506;2023-04-15T10:22:59;15.10;99.90
19781;DHT22;10050;55.492;13.506;2023-04-15T10:25:26;15.20;99.90
19781;DHT22;10050;55.492;13.506;2023-04-15T10:27:53;14.70;99.90
19781;DHT22;10050;55.492;13.506;2023-04-15T10:30:19;14.70;99.90
19781;DHT22;10050;55.492;13.506;2023-04-15T10:32:45;14.80;99.90
19781;DHT22;10050;55.492;13.506;2023-04-15T10:35:11;14.90;99.90
19781;DHT22;10050;55.492;13.506;2023-04-15T10:37:38;14.80;99.90
19781;DHT22;10050;55.492;13.506;2023-04-15T10:42:57;15.10;99.90
19781;DHT22;10050;55.492;13.506;2023-04-15T10:45:28;15.20;99.90
19781;DHT22;10050;55.492;13.506;2023-04-15T10:47:57;15.10;99.90
19781;DHT22;10050;55.492;13.506;2023-04-15T10:50:26;14.80;99.90
19781;DHT22;10050;55.492;13.506;2023-04-15T10:52:55;14.60;99.90
19781;DHT22;10050;55.492;13.506;2023-04-15T10:55:31;14.50;99.90
19781;DHT22;10050;55.492;13.506;2023-04-15T10:57:59;14.30;99.90
19781;DHT22;10050;55.492;13.506;2023-04-15T11:00:30;14.20;99.90
19781;DHT22;10050;55.492;13.506;2023-04-15T11:03:07;13.90;99.90
19781;DHT22;10050;55.492;13.506;2023-04-15T11:05:51;13.60;99.90
19781;DHT22;10050;55.492;13.506;2023-04-15T11:08:17;13.40;99.90
19781;DHT22;10050;55.492;13.506;2023-04-15T11:20:39;13.60;99.90
19781;DHT22;10050;55.492;13.506;2023-04-15T11:23:05;13.30;99.90
19781;DHT22;10050;55.492;13.506;2023-04-15T11:25:32;13.40;99.90
19781;DHT22;10050;55.492;13.506;2023-04-15T11:28:00;13.20;99.90
19781;DHT22;10050;55.492;13.506;2023-04-15T11:30:28;13.10;99.90
19781;DHT22;10050;55.492;13.506;2023-04-15T11:32:58;13.10;99.90
19781;DHT22;10050;55.492;13.506;2023-04-15T11:35:24;13.00;99.90
19781;DHT22;10050;55.492;13.506;2023-04-15T11:37:50;13.10;99.90
19781;DHT22;10050;55.492;13.506;2023-04-15T11:40:19;12.90;99.90
19781;DHT22;10050;55.492;13.506;2023-04-15T11:42:46;13.00;99.90
19781;DHT22;10050;55.492;13.506;2023-04-15T11:45:27;12.90;99.90
19781;DHT22;10050;55.492;13.506;2023-04-15T11:47:53;12.80;99.90
19781;DHT22;10050;55.492;13.506;2023-04-15T11:50:20;13.00;99.90
19781;DHT22;10050;55.492;13.506;2023-04-15T11:52:58;13.10;99.90
19781;DHT22;10050;55.492;13.506;2023-04-15T11:55:24;13.00;99.90
19781;DHT22;10050;55.492;13.506;2023-04-15T12:00:31;12.60;99.90
19781;DHT22;10050;55.492;13.506;2023-04-15T12:06:12;12.60;99.90
19781;DHT22;10050;55.492;13.506;2023-04-15T12:12:02;12.80;99.90
19781;DHT22;10050;55.492;13.506;2023-04-15T12:16:34;12.90;99.90
19781;DHT22;10050;55.492;13.506;2023-04-15T12:19:01;13.00;99.90
19781;DHT22;10050;55.492;13.506;2023-04-15T12:21:34;13.00;99.90
19781;DHT22;10050;55.492;13.506;2023-04-15T12:24:02;12.90;99.90
19781;DHT22;10050;55.492;13.506;2023-04-15T12:26:37;12.80;99.90
19781;DHT22;10050;55.492;13.506;2023-04-15T12:29:07;12.70;99.90
19781;DHT22;10050;55.492;13.506;2023-04-15T12:31:36;12.70;99.90
19781;DHT22;10050;55.492;13.506;2023-04-15T12:34:05;12.70;99.90
19781;DHT22;10050;55.492;13.506;2023-04-15T12:36:32;12.40;99.90
19781;DHT22;10050;55.492;13.506;2023-04-15T12:39:03;12.50;99.90
19781;DHT22;10050;55.492;13.506;2023-04-15T12:41:30;12.50;99.90
19781;DHT22;10050;55.492;13.506;2023-04-15T12:43:56;12.50;99.90
19781;DHT22;10050;55.492;13.506;2023-04-15T12:46:21;12.60;99.90
19781;DHT22;10050;55.492;13.506;2023-04-15T12:48:48;12.60;99.90
19781;DHT22;10050;55.492;13.506;2023-04-15T12:51:14;12.60;99.90
19781;DHT22;10050;55.492;13.506;2023-04-15T12:53:40;12.60;99.90
19781;DHT22;10050;55.492;13.506;2023-04-15T12:56:06;12.60;99.90
19781;DHT22;10050;55.492;13.506;2023-04-15T12:58:32;12.60;99.90
19781;DHT22;10050;55.492;13.506;2023-04-15T13:00:58;12.60;99.90
19781;DHT22;10050;55.492;13.506;2023-04-15T13:03:23;12.50;99.90
19781;DHT22;10050;55.492;13.506;2023-04-15T13:05:49;12.50;99.90
19781;DHT22;10050;55.492;13.506;2023-04-15T13:08:15;12.50;99.90
19781;DHT22;10050;55.492;13.506;2023-04-15T13:10:40;12.50;99.90
19781;DHT22;10050;55.492;13.506;2023-04-15T13:13:07;12.60;99.90
19781;DHT22;10050;55.492;13.506;2023-04-15T13:15:33;12.70;99.90
19781;DHT22;10050;55.492;13.506;2023-04-15T13:17:59;12.70;99.90
19781;DHT22;10050;55.492;13.506;2023-04-15T13:20:25;12.70;99.90
19781;DHT22;10050;55.492;13.506;2023-04-15T13:22:54;12.70;99.90
19781;DHT22;10050;55.492;13.506;2023-04-15T13:25:19;12.70;99.90
19781;DHT22;10050;55.492;13.506;2023-04-15T13:27:45;12.60;99.90
19781;DHT22;10050;55.492;13.506;2023-04-15T13:30:11;12.80;99.90
19781;DHT22;10050;55.492;13.506;2023-04-15T13:32:37;12.80;99.90
19781;DHT22;10050;55.492;13.506;2023-04-15T13:35:03;12.80;99.90
19781;DHT22;10050;55.492;13.506;2023-04-15T13:37:30;12.70;99.90
19781;DHT22;10050;55.492;13.506;2023-04-15T13:39:56;12.70;99.90
19781;DHT22;10050;55.492;13.506;2023-04-15T13:42:22;12.70;99.90
19781;DHT22;10050;55.492;13.506;2023-04-15T13:44:51;12.60;99.90
19781;DHT22;10050;55.492;13.506;2023-04-15T13:47:18;12.60;99.90
19781;DHT22;10050;55.492;13.506;2023-04-15T13:49:44;12.60;99.90
19781;DHT22;10050;55.492;13.506;2023-04-15T13:52:11;12.60;99.90
19781;DHT22;10050;55.492;13.506;2023-04-15T13:54:37;12.60;99.90
19781;DHT22;10050;55.492;13.506;2023-04-15T13:57:03;12.50;99.90
19781;DHT22;10050;55.492;13.506;2023-04-15T13:59:29;12.50;99.90
19781;DHT22;10050;55.492;13.506;2023-04-15T14:01:54;12.60;99.90
19781;DHT22;10050;55.492;13.506;2023-04-15T14:04:20;12.50;99.90
19781;DHT22;10050;55.492;13.506;2023-04-15T14:06:46;12.50;99.90
19781;DHT22;10050;55.492;13.506;2023-04-15T14:09:11;12.60;99.90
19781;DHT22;10050;55.492;13.506;2023-04-15T14:11:37;12.40;99.90
19781;DHT22;10050;55.492;13.506;2023-04-15T14:14:03;12.50;99.90
19781;DHT22;10050;55.492;13.506;2023-04-15T14:16:31;12.50;99.90
19781;DHT22;10050;55.492;13.506;2023-04-15T14:18:57;12.40;99.90
19781;DHT22;10050;55.492;13.506;2023-04-15T14:21:23;12.30;99.90
19781;DHT22;10050;55.492;13.506;2023-04-15T14:23:48;12.30;99.90
19781;DHT22;10050;55.492;13.506;2023-04-15T14:26:14;12.30;99.90
19781;DHT22;10050;55.492;13.506;2023-04-15T14:28:40;12.30;99.90
19781;DHT22;10050;55.492;13.506;2023-04-15T14:31:07;12.20;99.90
19781;DHT22;10050;55.492;13.506;2023-04-15T14:33:32;12.20;99.90
19781;DHT22;10050;55.492;13.506;2023-04-15T14:35:58;12.30;99.90
19781;DHT22;10050;55.492;13.506;2023-04-15T14:38:24;12.20;99.90
19781;DHT22;10050;55.492;13.506;2023-04-15T14:40:49;12.10;99.90
19781;DHT22;10050;55.492;13.506;2023-04-15T14:43:15;12.00;99.90
19781;DHT22;10050;55.492;13.506;2023-04-15T14:45:41;12.00;99.90
19781;DHT22;10050;55.492;13.506;2023-04-15T14:48:08;11.90;99.90
19781;DHT22;10050;55.492;13.506;2023-04-15T14:50:34;11.90;99.90
19781;DHT22;10050;55.492;13.506;2023-04-15T14:53:00;11.90;99.90
19781;DHT22;10050;55.492;13.506;2023-04-15T14:55:26;11.90;99.90
19781;DHT22;10050;55.492;13.506;2023-04-15T14:57:52;11.80;99.90
19781;DHT22;10050;55.492;13.506;2023-04-15T15:00:17;11.80;99.90
19781;DHT22;10050;55.492;13.506;2023-04-15T15:02:43;11.70;99.90
19781;DHT22;10050;55.492;13.506;2023-04-15T15:05:09;11.60;99.90
19781;DHT22;10050;55.492;13.506;2023-04-15T15:07:38;11.60;99.90
19781;DHT22;10050;55.492;13.506;2023-04-15T15:10:05;11.70;99.90
19781;DHT22;10050;55.492;13.506;2023-04-15T15:12:32;11.70;99.90
19781;DHT22;10050;55.492;13.506;2023-04-15T15:14:58;11.70;99.90
19781;DHT22;10050;55.492;13.506;2023-04-15T15:17:23;11.70;99.90
19781;DHT22;10050;55.492;13.506;2023-04-15T15:19:49;11.70;99.90
19781;DHT22;10050;55.492;13.506;2023-04-15T15:22:15;11.60;99.90
19781;DHT22;10050;55.492;13.506;2023-04-15T15:24:40;11.50;99.90
19781;DHT22;10050;55.492;13.506;2023-04-15T15:27:06;11.50;99.90
19781;DHT22;10050;55.492;13.506;2023-04-15T15:29:32;11.40;99.90
19781;DHT22;10050;55.492;13.506;2023-04-15T15:31:58;11.40;99.90
19781;DHT22;10050;55.492;13.506;2023-04-15T15:34:23;11.40;99.90
19781;DHT22;10050;55.492;13.506;2023-04-15T15:36:49;11.30;99.90
19781;DHT22;10050;55.492;13.506;2023-04-15T15:39:15;11.30;99.90
19781;DHT22;10050;55.492;13.506;2023-04-15T15:41:40;11.20;99.90